Terminal Aerodrome Forecast
Issued by NWS

Current Version | Previous Version | Graphics & Text | Print | Product List | Glossary Off
Versions: 1 2 3 4 5 6 7 8 9 10 11 12 13 14 15 16 17

737
FTUS41 KILN 232343
TAFLCK
TAF
KLCK 232343Z 2400/2424 31004KT P6SM FEW110
     FM241800 34008KT P6SM BKN050
     FM242100 35009KT P6SM SCT060=

USA.gov is the U.S. government's official web portal to all federal, state and local government web resources and services.